sensor_id;sensor_type;location;lat;lon;timestamp;P1;durP1;ratioP1;P2;durP2;ratioP2
76604;SDS011;73179;50.978;16.998;2023-12-28T00:00:18;31.42;;;15.73;;
76604;SDS011;73179;50.978;16.998;2023-12-28T00:03:05;26.60;;;14.60;;
76604;SDS011;73179;50.978;16.998;2023-12-28T00:05:31;28.63;;;16.00;;
76604;SDS011;73179;50.978;16.998;2023-12-28T00:07:57;34.72;;;17.75;;
76604;SDS011;73179;50.978;16.998;2023-12-28T00:10:23;31.98;;;16.00;;
76604;SDS011;73179;50.978;16.998;2023-12-28T00:12:50;32.75;;;15.63;;
76604;SDS011;73179;50.978;16.998;2023-12-28T00:15:16;32.50;;;16.02;;
76604;SDS011;73179;50.978;16.998;2023-12-28T00:17:42;32.50;;;16.33;;
76604;SDS011;73179;50.978;16.998;2023-12-28T00:20:09;33.42;;;18.17;;
76604;SDS011;73179;50.978;16.998;2023-12-28T00:22:35;35.20;;;18.42;;
76604;SDS011;73179;50.978;16.998;2023-12-28T00:25:04;34.67;;;18.27;;
76604;SDS011;73179;50.978;16.998;2023-12-28T00:27:31;32.22;;;17.73;;
76604;SDS011;73179;50.978;16.998;2023-12-28T00:29:59;33.00;;;18.02;;
76604;SDS011;73179;50.978;16.998;2023-12-28T00:32:26;35.30;;;16.58;;
76604;SDS011;73179;50.978;16.998;2023-12-28T00:34:51;31.85;;;15.77;;
76604;SDS011;73179;50.978;16.998;2023-12-28T00:37:18;29.15;;;16.13;;
76604;SDS011;73179;50.978;16.998;2023-12-28T00:39:43;26.85;;;14.77;;
76604;SDS011;73179;50.978;16.998;2023-12-28T00:42:12;29.35;;;13.98;;
76604;SDS011;73179;50.978;16.998;2023-12-28T00:44:38;26.40;;;13.55;;
76604;SDS011;73179;50.978;16.998;2023-12-28T00:47:04;21.15;;;12.50;;
76604;SDS011;73179;50.978;16.998;2023-12-28T00:49:31;23.85;;;12.77;;
76604;SDS011;73179;50.978;16.998;2023-12-28T00:51:58;25.65;;;12.30;;
76604;SDS011;73179;50.978;16.998;2023-12-28T00:54:24;26.77;;;12.30;;
76604;SDS011;73179;50.978;16.998;2023-12-28T00:56:50;20.70;;;12.45;;
76604;SDS011;73179;50.978;16.998;2023-12-28T00:59:16;24.23;;;12.43;;
76604;SDS011;73179;50.978;16.998;2023-12-28T01:01:42;24.90;;;12.98;;
76604;SDS011;73179;50.978;16.998;2023-12-28T01:04:08;20.90;;;11.93;;
76604;SDS011;73179;50.978;16.998;2023-12-28T01:06:34;22.02;;;11.40;;
76604;SDS011;73179;50.978;16.998;2023-12-28T01:08:59;18.77;;;9.48;;
76604;SDS011;73179;50.978;16.998;2023-12-28T01:11:26;17.88;;;10.55;;
76604;SDS011;73179;50.978;16.998;2023-12-28T01:13:52;18.48;;;11.00;;
76604;SDS011;73179;50.978;16.998;2023-12-28T01:16:19;24.00;;;11.95;;
76604;SDS011;73179;50.978;16.998;2023-12-28T01:18:45;18.13;;;10.32;;
76604;SDS011;73179;50.978;16.998;2023-12-28T01:21:11;20.38;;;9.60;;
76604;SDS011;73179;50.978;16.998;2023-12-28T01:23:37;15.43;;;8.98;;
76604;SDS011;73179;50.978;16.998;2023-12-28T01:26:03;18.80;;;10.02;;
76604;SDS011;73179;50.978;16.998;2023-12-28T01:28:29;20.13;;;9.20;;
76604;SDS011;73179;50.978;16.998;2023-12-28T01:30:55;13.80;;;8.38;;
76604;SDS011;73179;50.978;16.998;2023-12-28T01:33:21;18.92;;;10.55;;
76604;SDS011;73179;50.978;16.998;2023-12-28T01:35:47;15.00;;;7.97;;
76604;SDS011;73179;50.978;16.998;2023-12-28T01:38:13;11.52;;;7.43;;
76604;SDS011;73179;50.978;16.998;2023-12-28T01:40:43;8.68;;;5.93;;
76604;SDS011;73179;50.978;16.998;2023-12-28T01:43:10;10.07;;;6.03;;
76604;SDS011;73179;50.978;16.998;2023-12-28T01:45:36;12.95;;;6.38;;
76604;SDS011;73179;50.978;16.998;2023-12-28T01:48:02;11.48;;;5.75;;
76604;SDS011;73179;50.978;16.998;2023-12-28T01:50:29;7.78;;;5.70;;
76604;SDS011;73179;50.978;16.998;2023-12-28T01:52:57;8.52;;;5.60;;
76604;SDS011;73179;50.978;16.998;2023-12-28T01:55:26;9.45;;;5.80;;
76604;SDS011;73179;50.978;16.998;2023-12-28T01:57:53;12.77;;;7.25;;
76604;SDS011;73179;50.978;16.998;2023-12-28T02:00:21;10.75;;;6.95;;
76604;SDS011;73179;50.978;16.998;2023-12-28T02:02:47;16.88;;;9.85;;
76604;SDS011;73179;50.978;16.998;2023-12-28T02:05:14;19.52;;;8.80;;
76604;SDS011;73179;50.978;16.998;2023-12-28T02:07:40;22.00;;;12.48;;
76604;SDS011;73179;50.978;16.998;2023-12-28T02:10:07;19.70;;;9.55;;
76604;SDS011;73179;50.978;16.998;2023-12-28T02:12:33;15.27;;;8.20;;
76604;SDS011;73179;50.978;16.998;2023-12-28T02:14:59;12.35;;;8.10;;
76604;SDS011;73179;50.978;16.998;2023-12-28T02:17:33;10.18;;;5.82;;
76604;SDS011;73179;50.978;16.998;2023-12-28T02:20:24;10.48;;;6.85;;
76604;SDS011;73179;50.978;16.998;2023-12-28T02:22:53;8.13;;;5.68;;
76604;SDS011;73179;50.978;16.998;2023-12-28T02:25:19;7.72;;;5.38;;
76604;SDS011;73179;50.978;16.998;2023-12-28T02:27:45;8.30;;;5.22;;
76604;SDS011;73179;50.978;16.998;2023-12-28T02:30:14;6.97;;;5.00;;
76604;SDS011;73179;50.978;16.998;2023-12-28T02:35:34;7.05;;;4.85;;
76604;SDS011;73179;50.978;16.998;2023-12-28T02:38:06;6.60;;;4.32;;
76604;SDS011;73179;50.978;16.998;2023-12-28T02:40:36;6.03;;;4.47;;
76604;SDS011;73179;50.978;16.998;2023-12-28T02:43:07;7.57;;;4.50;;
76604;SDS011;73179;50.978;16.998;2023-12-28T02:45:34;7.53;;;4.50;;
76604;SDS011;73179;50.978;16.998;2023-12-28T02:48:01;7.72;;;5.15;;
76604;SDS011;73179;50.978;16.998;2023-12-28T02:50:28;5.25;;;4.20;;
76604;SDS011;73179;50.978;16.998;2023-12-28T02:52:57;6.72;;;4.32;;
76604;SDS011;73179;50.978;16.998;2023-12-28T02:55:23;7.32;;;5.43;;
76604;SDS011;73179;50.978;16.998;2023-12-28T02:57:50;10.50;;;4.82;;
76604;SDS011;73179;50.978;16.998;2023-12-28T03:00:18;7.85;;;4.50;;
76604;SDS011;73179;50.978;16.998;2023-12-28T03:02:43;7.88;;;4.50;;
76604;SDS011;73179;50.978;16.998;2023-12-28T03:05:10;6.80;;;4.68;;
76604;SDS011;73179;50.978;16.998;2023-12-28T03:07:36;6.75;;;4.88;;
76604;SDS011;73179;50.978;16.998;2023-12-28T03:10:02;8.82;;;4.53;;
76604;SDS011;73179;50.978;16.998;2023-12-28T03:12:29;6.90;;;4.55;;
76604;SDS011;73179;50.978;16.998;2023-12-28T03:14:56;6.13;;;4.63;;
76604;SDS011;73179;50.978;16.998;2023-12-28T03:17:22;7.53;;;4.25;;
76604;SDS011;73179;50.978;16.998;2023-12-28T03:19:48;7.57;;;4.03;;
76604;SDS011;73179;50.978;16.998;2023-12-28T03:22:14;8.18;;;5.00;;
76604;SDS011;73179;50.978;16.998;2023-12-28T03:24:41;10.02;;;4.80;;
76604;SDS011;73179;50.978;16.998;2023-12-28T03:27:07;8.07;;;4.85;;
76604;SDS011;73179;50.978;16.998;2023-12-28T03:29:33;7.60;;;4.82;;
76604;SDS011;73179;50.978;16.998;2023-12-28T03:31:59;7.15;;;5.15;;
76604;SDS011;73179;50.978;16.998;2023-12-28T03:34:26;6.07;;;4.40;;
76604;SDS011;73179;50.978;16.998;2023-12-28T03:36:54;7.97;;;4.47;;
76604;SDS011;73179;50.978;16.998;2023-12-28T03:39:21;6.25;;;4.20;;
76604;SDS011;73179;50.978;16.998;2023-12-28T03:41:47;6.03;;;4.30;;
76604;SDS011;73179;50.978;16.998;2023-12-28T03:44:13;6.20;;;4.30;;
76604;SDS011;73179;50.978;16.998;2023-12-28T03:46:39;5.88;;;3.75;;
76604;SDS011;73179;50.978;16.998;2023-12-28T03:49:06;7.20;;;3.85;;
76604;SDS011;73179;50.978;16.998;2023-12-28T03:51:32;5.25;;;3.90;;
76604;SDS011;73179;50.978;16.998;2023-12-28T03:53:58;6.93;;;3.80;;
76604;SDS011;73179;50.978;16.998;2023-12-28T03:56:25;6.85;;;3.75;;
76604;SDS011;73179;50.978;16.998;2023-12-28T03:58:52;6.28;;;3.63;;
76604;SDS011;73179;50.978;16.998;2023-12-28T04:01:18;5.75;;;4.30;;
76604;SDS011;73179;50.978;16.998;2023-12-28T04:03:45;7.03;;;3.47;;
76604;SDS011;73179;50.978;16.998;2023-12-28T04:06:12;6.43;;;3.40;;
76604;SDS011;73179;50.978;16.998;2023-12-28T04:08:39;5.82;;;4.22;;
76604;SDS011;73179;50.978;16.998;2023-12-28T04:11:05;5.47;;;3.40;;
76604;SDS011;73179;50.978;16.998;2023-12-28T04:13:32;5.40;;;3.40;;
76604;SDS011;73179;50.978;16.998;2023-12-28T04:15:57;5.43;;;3.33;;
76604;SDS011;73179;50.978;16.998;2023-12-28T04:18:24;5.10;;;3.00;;
76604;SDS011;73179;50.978;16.998;2023-12-28T04:20:50;5.50;;;3.40;;
76604;SDS011;73179;50.978;16.998;2023-12-28T04:23:16;5.15;;;3.40;;
76604;SDS011;73179;50.978;16.998;2023-12-28T04:25:42;6.75;;;3.20;;
76604;SDS011;73179;50.978;16.998;2023-12-28T04:28:08;4.72;;;3.80;;
76604;SDS011;73179;50.978;16.998;2023-12-28T04:30:34;5.07;;;3.20;;
76604;SDS011;73179;50.978;16.998;2023-12-28T04:33:00;4.45;;;3.08;;
76604;SDS011;73179;50.978;16.998;2023-12-28T04:35:27;4.72;;;2.80;;
76604;SDS011;73179;50.978;16.998;2023-12-28T04:37:53;4.55;;;2.88;;
76604;SDS011;73179;50.978;16.998;2023-12-28T04:40:19;4.70;;;3.17;;
76604;SDS011;73179;50.978;16.998;2023-12-28T04:42:45;4.45;;;3.10;;
76604;SDS011;73179;50.978;16.998;2023-12-28T04:45:11;5.70;;;3.00;;
76604;SDS011;73179;50.978;16.998;2023-12-28T04:47:37;7.30;;;2.90;;
76604;SDS011;73179;50.978;16.998;2023-12-28T04:50:04;5.32;;;3.10;;
76604;SDS011;73179;50.978;16.998;2023-12-28T04:52:31;6.57;;;2.80;;
76604;SDS011;73179;50.978;16.998;2023-12-28T04:54:57;5.85;;;3.50;;
76604;SDS011;73179;50.978;16.998;2023-12-28T04:57:24;4.30;;;2.80;;
76604;SDS011;73179;50.978;16.998;2023-12-28T04:59:51;4.85;;;2.80;;
76604;SDS011;73179;50.978;16.998;2023-12-28T05:02:17;3.95;;;2.65;;
76604;SDS011;73179;50.978;16.998;2023-12-28T05:04:43;4.90;;;2.95;;
76604;SDS011;73179;50.978;16.998;2023-12-28T05:07:10;4.93;;;2.95;;
76604;SDS011;73179;50.978;16.998;2023-12-28T05:09:36;3.95;;;3.13;;
76604;SDS011;73179;50.978;16.998;2023-12-28T05:12:02;4.32;;;2.95;;
76604;SDS011;73179;50.978;16.998;2023-12-28T05:14:28;5.90;;;2.78;;
76604;SDS011;73179;50.978;16.998;2023-12-28T05:16:54;6.25;;;2.70;;
76604;SDS011;73179;50.978;16.998;2023-12-28T05:19:20;3.70;;;2.20;;
76604;SDS011;73179;50.978;16.998;2023-12-28T05:21:46;4.22;;;2.70;;
76604;SDS011;73179;50.978;16.998;2023-12-28T05:24:12;4.03;;;2.28;;
76604;SDS011;73179;50.978;16.998;2023-12-28T05:26:39;5.53;;;2.42;;
76604;SDS011;73179;50.978;16.998;2023-12-28T05:29:05;4.45;;;2.30;;
76604;SDS011;73179;50.978;16.998;2023-12-28T05:31:31;3.17;;;2.38;;
76604;SDS011;73179;50.978;16.998;2023-12-28T05:33:57;3.42;;;1.92;;
76604;SDS011;73179;50.978;16.998;2023-12-28T05:36:24;3.85;;;1.92;;
76604;SDS011;73179;50.978;16.998;2023-12-28T05:38:50;3.22;;;2.13;;
76604;SDS011;73179;50.978;16.998;2023-12-28T05:41:17;6.35;;;2.50;;
76604;SDS011;73179;50.978;16.998;2023-12-28T05:43:43;3.58;;;2.10;;
76604;SDS011;73179;50.978;16.998;2023-12-28T05:46:09;3.60;;;2.22;;
76604;SDS011;73179;50.978;16.998;2023-12-28T05:48:35;3.70;;;2.15;;
76604;SDS011;73179;50.978;16.998;2023-12-28T05:51:01;3.45;;;2.05;;
76604;SDS011;73179;50.978;16.998;2023-12-28T05:53:27;2.90;;;1.95;;
76604;SDS011;73179;50.978;16.998;2023-12-28T05:55:55;4.50;;;2.80;;
76604;SDS011;73179;50.978;16.998;2023-12-28T05:58:21;3.95;;;2.67;;
76604;SDS011;73179;50.978;16.998;2023-12-28T06:00:49;5.35;;;2.95;;
76604;SDS011;73179;50.978;16.998;2023-12-28T06:03:16;4.97;;;3.15;;
76604;SDS011;73179;50.978;16.998;2023-12-28T06:05:43;6.03;;;2.40;;
76604;SDS011;73179;50.978;16.998;2023-12-28T06:08:11;3.88;;;2.60;;
76604;SDS011;73179;50.978;16.998;2023-12-28T06:10:38;3.22;;;2.40;;
76604;SDS011;73179;50.978;16.998;2023-12-28T06:13:05;4.85;;;2.33;;
76604;SDS011;73179;50.978;16.998;2023-12-28T06:15:33;3.63;;;2.40;;
76604;SDS011;73179;50.978;16.998;2023-12-28T06:17:59;3.35;;;2.63;;
76604;SDS011;73179;50.978;16.998;2023-12-28T06:20:28;3.17;;;2.38;;
76604;SDS011;73179;50.978;16.998;2023-12-28T06:22:54;3.63;;;2.25;;
76604;SDS011;73179;50.978;16.998;2023-12-28T06:25:22;3.42;;;2.10;;
76604;SDS011;73179;50.978;16.998;2023-12-28T06:27:49;3.88;;;2.40;;
76604;SDS011;73179;50.978;16.998;2023-12-28T06:30:16;4.38;;;2.20;;
76604;SDS011;73179;50.978;16.998;2023-12-28T06:32:43;3.33;;;2.00;;
76604;SDS011;73179;50.978;16.998;2023-12-28T06:35:10;3.20;;;2.10;;
76604;SDS011;73179;50.978;16.998;2023-12-28T06:37:37;3.33;;;2.20;;
76604;SDS011;73179;50.978;16.998;2023-12-28T06:40:04;3.03;;;2.00;;
76604;SDS011;73179;50.978;16.998;2023-12-28T06:42:31;3.72;;;2.40;;
76604;SDS011;73179;50.978;16.998;2023-12-28T06:44:59;4.07;;;2.55;;
76604;SDS011;73179;50.978;16.998;2023-12-28T06:47:25;4.32;;;2.45;;
76604;SDS011;73179;50.978;16.998;2023-12-28T06:49:53;4.25;;;2.28;;
76604;SDS011;73179;50.978;16.998;2023-12-28T06:52:20;3.75;;;2.08;;
76604;SDS011;73179;50.978;16.998;2023-12-28T06:54:47;3.92;;;2.60;;
76604;SDS011;73179;50.978;16.998;2023-12-28T06:57:17;4.28;;;2.45;;
76604;SDS011;73179;50.978;16.998;2023-12-28T06:59:47;3.50;;;2.40;;
76604;SDS011;73179;50.978;16.998;2023-12-28T07:02:16;4.05;;;2.28;;
76604;SDS011;73179;50.978;16.998;2023-12-28T07:04:46;3.60;;;2.42;;
76604;SDS011;73179;50.978;16.998;2023-12-28T07:07:18;5.28;;;2.33;;
76604;SDS011;73179;50.978;16.998;2023-12-28T07:09:52;4.53;;;2.53;;
76604;SDS011;73179;50.978;16.998;2023-12-28T07:12:25;4.60;;;2.80;;
76604;SDS011;73179;50.978;16.998;2023-12-28T07:14:58;4.60;;;2.72;;
76604;SDS011;73179;50.978;16.998;2023-12-28T07:17:27;5.15;;;2.85;;
76604;SDS011;73179;50.978;16.998;2023-12-28T07:20:00;5.25;;;2.80;;
76604;SDS011;73179;50.978;16.998;2023-12-28T07:22:33;3.70;;;2.83;;
76604;SDS011;73179;50.978;16.998;2023-12-28T07:25:07;4.70;;;2.28;;
76604;SDS011;73179;50.978;16.998;2023-12-28T07:27:34;5.80;;;2.88;;
76604;SDS011;73179;50.978;16.998;2023-12-28T07:30:03;3.45;;;2.50;;
76604;SDS011;73179;50.978;16.998;2023-12-28T07:32:30;3.60;;;2.50;;
76604;SDS011;73179;50.978;16.998;2023-12-28T07:34:57;3.50;;;2.42;;
76604;SDS011;73179;50.978;16.998;2023-12-28T07:37:25;4.15;;;2.58;;
76604;SDS011;73179;50.978;16.998;2023-12-28T07:39:52;5.25;;;2.78;;
76604;SDS011;73179;50.978;16.998;2023-12-28T07:42:20;2.92;;;2.10;;
76604;SDS011;73179;50.978;16.998;2023-12-28T07:44:48;2.75;;;2.38;;
76604;SDS011;73179;50.978;16.998;2023-12-28T07:47:16;4.93;;;2.20;;
76604;SDS011;73179;50.978;16.998;2023-12-28T07:49:44;3.83;;;2.40;;
76604;SDS011;73179;50.978;16.998;2023-12-28T07:52:11;3.17;;;2.38;;
76604;SDS011;73179;50.978;16.998;2023-12-28T07:54:38;5.35;;;2.42;;
76604;SDS011;73179;50.978;16.998;2023-12-28T07:57:05;3.97;;;2.70;;
76604;SDS011;73179;50.978;16.998;2023-12-28T07:59:32;4.00;;;2.45;;
76604;SDS011;73179;50.978;16.998;2023-12-28T08:01:59;5.22;;;2.88;;
76604;SDS011;73179;50.978;16.998;2023-12-28T08:04:26;3.55;;;2.60;;
76604;SDS011;73179;50.978;16.998;2023-12-28T08:06:53;3.70;;;2.45;;
76604;SDS011;73179;50.978;16.998;2023-12-28T08:09:20;5.05;;;2.60;;
76604;SDS011;73179;50.978;16.998;2023-12-28T08:11:48;5.72;;;2.80;;
76604;SDS011;73179;50.978;16.998;2023-12-28T08:14:14;6.18;;;2.85;;
76604;SDS011;73179;50.978;16.998;2023-12-28T08:16:41;4.50;;;2.60;;
76604;SDS011;73179;50.978;16.998;2023-12-28T08:19:08;2.97;;;2.08;;
76604;SDS011;73179;50.978;16.998;2023-12-28T08:21:35;4.25;;;2.80;;
76604;SDS011;73179;50.978;16.998;2023-12-28T08:24:01;4.43;;;2.92;;
76604;SDS011;73179;50.978;16.998;2023-12-28T08:26:29;3.78;;;2.42;;
76604;SDS011;73179;50.978;16.998;2023-12-28T08:28:56;5.40;;;2.70;;
76604;SDS011;73179;50.978;16.998;2023-12-28T08:31:23;5.80;;;2.78;;
76604;SDS011;73179;50.978;16.998;2023-12-28T08:33:50;4.55;;;2.63;;
76604;SDS011;73179;50.978;16.998;2023-12-28T08:36:17;3.65;;;2.47;;
76604;SDS011;73179;50.978;16.998;2023-12-28T08:38:44;4.82;;;3.00;;
76604;SDS011;73179;50.978;16.998;2023-12-28T08:41:22;4.43;;;2.55;;
76604;SDS011;73179;50.978;16.998;2023-12-28T08:43:53;4.57;;;2.70;;
76604;SDS011;73179;50.978;16.998;2023-12-28T08:46:23;5.43;;;2.70;;
76604;SDS011;73179;50.978;16.998;2023-12-28T08:48:54;4.50;;;2.88;;
76604;SDS011;73179;50.978;16.998;2023-12-28T08:51:21;3.92;;;2.63;;
76604;SDS011;73179;50.978;16.998;2023-12-28T08:53:49;5.50;;;3.17;;
76604;SDS011;73179;50.978;16.998;2023-12-28T08:56:16;4.47;;;3.20;;
76604;SDS011;73179;50.978;16.998;2023-12-28T08:58:44;4.70;;;2.72;;
76604;SDS011;73179;50.978;16.998;2023-12-28T09:03:49;6.80;;;3.80;;
76604;SDS011;73179;50.978;16.998;2023-12-28T09:06:17;7.03;;;3.65;;
76604;SDS011;73179;50.978;16.998;2023-12-28T09:08:47;6.68;;;3.40;;
76604;SDS011;73179;50.978;16.998;2023-12-28T09:11:16;5.03;;;3.03;;
76604;SDS011;73179;50.978;16.998;2023-12-28T09:13:46;6.43;;;3.17;;
76604;SDS011;73179;50.978;16.998;2023-12-28T09:16:13;4.55;;;3.10;;
76604;SDS011;73179;50.978;16.998;2023-12-28T09:18:41;5.97;;;2.53;;
76604;SDS011;73179;50.978;16.998;2023-12-28T09:21:09;5.32;;;2.42;;
76604;SDS011;73179;50.978;16.998;2023-12-28T09:23:36;5.53;;;3.00;;
76604;SDS011;73179;50.978;16.998;2023-12-28T09:26:04;4.95;;;2.60;;
76604;SDS011;73179;50.978;16.998;2023-12-28T09:28:32;5.57;;;3.30;;
76604;SDS011;73179;50.978;16.998;2023-12-28T09:30:59;6.10;;;3.53;;
76604;SDS011;73179;50.978;16.998;2023-12-28T09:33:30;5.13;;;3.28;;
76604;SDS011;73179;50.978;16.998;2023-12-28T09:35:57;7.00;;;3.13;;
76604;SDS011;73179;50.978;16.998;2023-12-28T09:38:24;5.38;;;3.78;;
76604;SDS011;73179;50.978;16.998;2023-12-28T09:40:53;4.70;;;3.42;;
76604;SDS011;73179;50.978;16.998;2023-12-28T09:43:35;5.70;;;3.47;;
76604;SDS011;73179;50.978;16.998;2023-12-28T09:46:07;7.32;;;3.10;;
76604;SDS011;73179;50.978;16.998;2023-12-28T09:48:34;6.05;;;3.25;;
76604;SDS011;73179;50.978;16.998;2023-12-28T09:51:05;5.53;;;3.40;;
76604;SDS011;73179;50.978;16.998;2023-12-28T09:53:32;4.32;;;3.03;;
76604;SDS011;73179;50.978;16.998;2023-12-28T09:55:59;4.82;;;3.28;;
76604;SDS011;73179;50.978;16.998;2023-12-28T09:58:28;4.32;;;2.70;;
76604;SDS011;73179;50.978;16.998;2023-12-28T10:00:56;5.10;;;2.92;;
76604;SDS011;73179;50.978;16.998;2023-12-28T10:03:24;7.82;;;3.33;;
76604;SDS011;73179;50.978;16.998;2023-12-28T10:05:51;6.43;;;3.72;;
76604;SDS011;73179;50.978;16.998;2023-12-28T10:08:20;5.38;;;2.92;;
76604;SDS011;73179;50.978;16.998;2023-12-28T10:10:47;4.70;;;3.15;;
76604;SDS011;73179;50.978;16.998;2023-12-28T10:13:17;6.13;;;3.42;;
76604;SDS011;73179;50.978;16.998;2023-12-28T10:15:44;4.90;;;3.05;;
76604;SDS011;73179;50.978;16.998;2023-12-28T10:18:11;4.60;;;3.15;;
76604;SDS011;73179;50.978;16.998;2023-12-28T10:20:38;5.43;;;3.30;;
76604;SDS011;73179;50.978;16.998;2023-12-28T10:23:05;4.90;;;3.30;;
76604;SDS011;73179;50.978;16.998;2023-12-28T10:25:33;4.45;;;3.05;;
76604;SDS011;73179;50.978;16.998;2023-12-28T10:28:03;6.10;;;3.15;;
76604;SDS011;73179;50.978;16.998;2023-12-28T10:30:31;4.60;;;3.05;;
76604;SDS011;73179;50.978;16.998;2023-12-28T10:32:58;6.30;;;3.30;;
76604;SDS011;73179;50.978;16.998;2023-12-28T10:35:25;5.03;;;3.22;;
76604;SDS011;73179;50.978;16.998;2023-12-28T10:37:52;6.10;;;3.60;;
76604;SDS011;73179;50.978;16.998;2023-12-28T10:40:21;5.10;;;3.67;;
76604;SDS011;73179;50.978;16.998;2023-12-28T10:42:51;5.28;;;3.83;;
76604;SDS011;73179;50.978;16.998;2023-12-28T10:45:24;5.88;;;3.72;;
76604;SDS011;73179;50.978;16.998;2023-12-28T10:48:06;6.78;;;3.72;;
76604;SDS011;73179;50.978;16.998;2023-12-28T10:53:30;6.70;;;3.33;;
76604;SDS011;73179;50.978;16.998;2023-12-28T11:01:51;7.32;;;4.70;;
76604;SDS011;73179;50.978;16.998;2023-12-28T11:04:24;7.90;;;4.57;;
76604;SDS011;73179;50.978;16.998;2023-12-28T11:07:02;6.55;;;4.03;;
76604;SDS011;73179;50.978;16.998;2023-12-28T11:09:32;6.35;;;4.18;;
76604;SDS011;73179;50.978;16.998;2023-12-28T11:12:02;6.05;;;4.00;;
76604;SDS011;73179;50.978;16.998;2023-12-28T11:14:33;6.50;;;3.90;;
76604;SDS011;73179;50.978;16.998;2023-12-28T11:17:01;6.55;;;4.03;;
76604;SDS011;73179;50.978;16.998;2023-12-28T11:19:29;7.32;;;4.10;;
76604;SDS011;73179;50.978;16.998;2023-12-28T11:21:58;6.97;;;4.13;;
76604;SDS011;73179;50.978;16.998;2023-12-28T11:24:26;7.10;;;3.97;;
76604;SDS011;73179;50.978;16.998;2023-12-28T11:26:55;6.78;;;3.95;;
76604;SDS011;73179;50.978;16.998;2023-12-28T11:29:23;6.00;;;3.70;;
76604;SDS011;73179;50.978;16.998;2023-12-28T11:31:51;8.05;;;4.32;;
76604;SDS011;73179;50.978;16.998;2023-12-28T11:34:39;7.03;;;4.18;;
76604;SDS011;73179;50.978;16.998;2023-12-28T11:37:12;8.90;;;5.43;;
76604;SDS011;73179;50.978;16.998;2023-12-28T11:39:45;10.20;;;5.82;;
76604;SDS011;73179;50.978;16.998;2023-12-28T11:42:11;9.50;;;5.65;;
76604;SDS011;73179;50.978;16.998;2023-12-28T11:44:39;11.13;;;6.10;;
76604;SDS011;73179;50.978;16.998;2023-12-28T11:47:11;9.20;;;5.38;;
76604;SDS011;73179;50.978;16.998;2023-12-28T11:49:42;7.18;;;4.60;;
76604;SDS011;73179;50.978;16.998;2023-12-28T11:52:27;5.72;;;3.65;;
76604;SDS011;73179;50.978;16.998;2023-12-28T11:54:56;6.07;;;3.50;;
76604;SDS011;73179;50.978;16.998;2023-12-28T11:57:23;8.80;;;4.20;;
76604;SDS011;73179;50.978;16.998;2023-12-28T12:00:00;7.70;;;3.45;;
76604;SDS011;73179;50.978;16.998;2023-12-28T12:02:28;6.55;;;4.07;;
76604;SDS011;73179;50.978;16.998;2023-12-28T12:04:55;5.80;;;3.75;;
76604;SDS011;73179;50.978;16.998;2023-12-28T12:07:28;11.95;;;4.97;;
76604;SDS011;73179;50.978;16.998;2023-12-28T12:09:58;9.90;;;4.93;;
76604;SDS011;73179;50.978;16.998;2023-12-28T12:12:25;8.52;;;4.53;;
76604;SDS011;73179;50.978;16.998;2023-12-28T12:14:53;6.72;;;3.75;;
76604;SDS011;73179;50.978;16.998;2023-12-28T12:17:21;6.25;;;4.03;;
76604;SDS011;73179;50.978;16.998;2023-12-28T12:19:49;6.18;;;3.72;;
76604;SDS011;73179;50.978;16.998;2023-12-28T12:22:18;6.30;;;4.22;;
76604;SDS011;73179;50.978;16.998;2023-12-28T12:24:46;13.57;;;6.45;;
76604;SDS011;73179;50.978;16.998;2023-12-28T12:27:15;12.43;;;6.07;;
76604;SDS011;73179;50.978;16.998;2023-12-28T12:29:46;6.53;;;3.85;;
76604;SDS011;73179;50.978;16.998;2023-12-28T12:32:13;8.60;;;4.50;;
76604;SDS011;73179;50.978;16.998;2023-12-28T12:34:41;8.25;;;4.05;;
76604;SDS011;73179;50.978;16.998;2023-12-28T12:37:07;10.93;;;4.45;;
76604;SDS011;73179;50.978;16.998;2023-12-28T12:39:34;10.02;;;5.47;;
76604;SDS011;73179;50.978;16.998;2023-12-28T12:42:01;8.32;;;4.55;;
76604;SDS011;73179;50.978;16.998;2023-12-28T12:44:28;8.32;;;4.80;;
76604;SDS011;73179;50.978;16.998;2023-12-28T12:46:58;10.52;;;5.20;;
76604;SDS011;73179;50.978;16.998;2023-12-28T12:49:25;6.38;;;4.75;;
76604;SDS011;73179;50.978;16.998;2023-12-28T12:51:51;8.82;;;4.47;;
76604;SDS011;73179;50.978;16.998;2023-12-28T12:54:18;11.60;;;5.57;;
76604;SDS011;73179;50.978;16.998;2023-12-28T12:56:47;11.00;;;6.22;;
76604;SDS011;73179;50.978;16.998;2023-12-28T12:59:13;23.67;;;10.80;;
76604;SDS011;73179;50.978;16.998;2023-12-28T13:01:45;37.10;;;14.95;;
76604;SDS011;73179;50.978;16.998;2023-12-28T13:04:22;29.65;;;13.93;;
76604;SDS011;73179;50.978;16.998;2023-12-28T13:06:48;15.75;;;7.35;;
76604;SDS011;73179;50.978;16.998;2023-12-28T13:09:15;11.57;;;6.38;;
76604;SDS011;73179;50.978;16.998;2023-12-28T13:11:41;12.00;;;6.22;;
76604;SDS011;73179;50.978;16.998;2023-12-28T13:14:08;14.15;;;7.60;;
76604;SDS011;73179;50.978;16.998;2023-12-28T13:16:34;10.23;;;5.78;;
76604;SDS011;73179;50.978;16.998;2023-12-28T13:19:00;12.30;;;5.68;;
76604;SDS011;73179;50.978;16.998;2023-12-28T13:21:26;11.77;;;6.78;;
76604;SDS011;73179;50.978;16.998;2023-12-28T13:23:52;13.73;;;6.95;;
76604;SDS011;73179;50.978;16.998;2023-12-28T13:26:18;11.95;;;6.15;;
76604;SDS011;73179;50.978;16.998;2023-12-28T13:28:45;14.23;;;6.93;;
76604;SDS011;73179;50.978;16.998;2023-12-28T13:31:11;9.68;;;5.18;;
76604;SDS011;73179;50.978;16.998;2023-12-28T13:33:38;12.20;;;6.05;;
76604;SDS011;73179;50.978;16.998;2023-12-28T13:36:04;11.43;;;5.60;;
76604;SDS011;73179;50.978;16.998;2023-12-28T13:38:30;7.90;;;4.20;;
76604;SDS011;73179;50.978;16.998;2023-12-28T13:40:56;7.95;;;5.10;;
76604;SDS011;73179;50.978;16.998;2023-12-28T13:43:23;9.90;;;5.93;;
76604;SDS011;73179;50.978;16.998;2023-12-28T13:45:56;13.27;;;7.25;;
76604;SDS011;73179;50.978;16.998;2023-12-28T13:48:42;11.02;;;6.35;;
76604;SDS011;73179;50.978;16.998;2023-12-28T13:51:34;14.05;;;6.25;;
76604;SDS011;73179;50.978;16.998;2023-12-28T13:54:24;11.07;;;5.72;;
76604;SDS011;73179;50.978;16.998;2023-12-28T13:57:24;9.80;;;5.20;;
76604;SDS011;73179;50.978;16.998;2023-12-28T14:00:17;8.88;;;6.03;;
76604;SDS011;73179;50.978;16.998;2023-12-28T14:03:00;8.98;;;5.75;;
76604;SDS011;73179;50.978;16.998;2023-12-28T14:06:03;11.57;;;6.68;;
76604;SDS011;73179;50.978;16.998;2023-12-28T14:08:54;11.18;;;7.10;;
76604;SDS011;73179;50.978;16.998;2023-12-28T14:11:55;12.02;;;6.95;;
76604;SDS011;73179;50.978;16.998;2023-12-28T14:14:46;12.57;;;6.53;;
76604;SDS011;73179;50.978;16.998;2023-12-28T14:17:18;8.70;;;6.13;;
76604;SDS011;73179;50.978;16.998;2023-12-28T14:19:53;8.20;;;5.05;;
76604;SDS011;73179;50.978;16.998;2023-12-28T14:22:27;8.10;;;5.38;;
76604;SDS011;73179;50.978;16.998;2023-12-28T14:25:18;9.05;;;5.75;;
76604;SDS011;73179;50.978;16.998;2023-12-28T14:28:16;11.93;;;6.28;;
76604;SDS011;73179;50.978;16.998;2023-12-28T14:34:24;10.68;;;5.93;;
76604;SDS011;73179;50.978;16.998;2023-12-28T14:37:22;8.00;;;5.13;;
76604;SDS011;73179;50.978;16.998;2023-12-28T14:39:49;9.65;;;5.00;;
76604;SDS011;73179;50.978;16.998;2023-12-28T14:42:42;9.63;;;5.53;;
76604;SDS011;73179;50.978;16.998;2023-12-28T14:45:28;8.32;;;4.63;;
76604;SDS011;73179;50.978;16.998;2023-12-28T14:47:55;7.35;;;4.78;;
76604;SDS011;73179;50.978;16.998;2023-12-28T14:50:49;9.45;;;6.13;;
76604;SDS011;73179;50.978;16.998;2023-12-28T14:53:23;11.52;;;6.55;;
76604;SDS011;73179;50.978;16.998;2023-12-28T14:56:03;15.18;;;7.05;;
76604;SDS011;73179;50.978;16.998;2023-12-28T15:04:32;15.93;;;7.13;;